Weather at Piper road

Public forecast

Using degrees Celsius for public forecast. Weather courtesy of forecast.io.

Closest aviation weather report (METAR) to Piper road

Report is more than 6 hours old.

Closest report is Alverca Air Base, 4.3 nm (7.9 km) WSW. Retrieved 2020/09/30 16:00 UTC (12 hours ago):

LPAR 301600Z 34013KT 9999 FEW030 22/14 Q1017

Closest aviation forecast (TAF) to Piper road

Forecast is more than 12 hours old.

Closest forecast is Alverca Air Base, 4.3 nm (7.9 km) WSW. Retrieved 2020/09/15 09:00 UTC (16 days ago):

TAF LPAR 150807Z 1509/1518 VRB02KT 9999 SCT030 BECMG 1511/1514 26010KT CAVOK